Time;durP1;ratioP1;P1;durP2;ratioP2;P2;SDS_P1;SDS_P2;PMS_P1;PMS_P2;Temp;Humidity;BMP_temperature;BMP_pressure;BME280_temperature;BME280_humidity;BME280_pressure;Samples;Min_cycle;Max_cycle;Signal;HPM_P1;HPM_P2
2021/11/28 00:02:14;;;;;;;59.22;18.95;;;3.50;99.90;;;;;;4970687;28;20531;-75
2021/11/28 00:04:42;;;;;;;58.85;18.83;;;3.50;99.90;;;;;;4987227;28;20654;-75
2021/11/28 00:07:23;;;;;;;66.18;20.45;;;3.50;99.90;;;;;;4990971;28;20169;-76
2021/11/28 00:10:11;;;;;;;64.03;20.08;;;3.50;99.90;;;;;;4976135;28;20727;-76
2021/11/28 00:15:14;;;;;;;69.65;21.10;;;3.50;99.90;;;;;;5003683;28;20140;-75
2021/11/28 00:17:40;;;;;;;60.83;19.80;;;3.50;99.90;;;;;;4974277;28;20133;-76
2021/11/28 00:20:11;;;;;;;59.55;19.52;;;3.50;99.90;;;;;;4988078;28;20509;-75
2021/11/28 00:22:39;;;;;;;67.63;22.02;;;3.50;99.90;;;;;;4986505;28;20062;-76
2021/11/28 00:25:08;;;;;;;57.53;19.67;;;3.50;99.90;;;;;;5006749;28;20060;-75
2021/11/28 00:27:36;;;;;;;65.55;21.52;;;3.40;99.90;;;;;;5007680;28;20506;-76
2021/11/28 00:30:09;;;;;;;65.68;20.75;;;3.40;99.90;;;;;;4975149;28;20137;-76
2021/11/28 00:32:36;;;;;;;73.95;22.73;;;3.50;99.90;;;;;;4988463;28;20140;-76
2021/11/28 00:35:03;;;;;;;70.28;19.55;;;3.50;99.90;;;;;;4999963;28;20801;-75
2021/11/28 00:37:29;;;;;;;67.72;20.50;;;3.50;99.90;;;;;;5027609;28;20534;-75
2021/11/28 00:39:56;;;;;;;70.80;22.52;;;3.60;99.90;;;;;;4997957;28;20058;-75
2021/11/28 00:42:23;;;;;;;64.05;20.40;;;3.50;99.90;;;;;;4988212;28;20052;-76
2021/11/28 00:44:50;;;;;;;71.05;22.42;;;3.60;99.90;;;;;;4989628;28;20129;-76
2021/11/28 00:47:19;;;;;;;78.07;21.70;;;3.50;99.90;;;;;;4970767;28;20407;-75
2021/11/28 00:52:42;;;;;;;64.85;20.80;;;3.60;99.90;;;;;;4966249;28;20157;-76
2021/11/28 00:55:12;;;;;;;74.35;22.80;;;3.60;99.90;;;;;;5005828;28;20141;-76
2021/11/28 00:57:39;;;;;;;74.72;23.90;;;3.60;99.90;;;;;;4990411;28;20100;-75
2021/11/28 01:00:08;;;;;;;80.85;22.88;;;3.60;99.90;;;;;;5000773;28;20201;-75
2021/11/28 01:02:36;;;;;;;67.20;22.42;;;3.60;99.90;;;;;;4973824;28;20086;-76
2021/11/28 01:05:05;;;;;;;75.93;24.23;;;3.60;99.90;;;;;;4987834;28;20187;-76
2021/11/28 01:07:32;;;;;;;74.75;22.58;;;3.60;99.90;;;;;;4986706;28;20085;-76
2021/11/28 01:09:59;;;;;;;75.78;21.95;;;3.70;99.90;;;;;;4970415;28;20116;-75
2021/11/28 01:12:27;;;;;;;84.40;25.60;;;3.70;99.90;;;;;;4972282;28;20089;-83
2021/11/28 01:14:54;;;;;;;87.25;24.25;;;3.60;99.90;;;;;;4991621;28;20088;-83
2021/11/28 01:17:41;;;;;;;87.90;24.13;;;3.70;99.90;;;;;;5012517;28;20074;-83
2021/11/28 01:20:09;;;;;;;78.20;23.92;;;3.70;99.90;;;;;;5012841;28;20093;-83
2021/11/28 01:22:37;;;;;;;72.65;22.98;;;3.70;99.90;;;;;;4994984;28;20136;-84
2021/11/28 01:25:05;;;;;;;99.28;25.45;;;3.70;99.90;;;;;;5012781;28;20093;-84
2021/11/28 01:27:33;;;;;;;90.30;25.65;;;3.70;99.90;;;;;;5012625;28;20140;-84
2021/11/28 01:30:00;;;;;;;83.53;24.55;;;3.70;99.90;;;;;;4994779;28;20130;-84
2021/11/28 01:32:28;;;;;;;92.03;25.48;;;3.70;99.90;;;;;;5020031;28;20081;-84
2021/11/28 01:34:55;;;;;;;94.55;24.80;;;3.80;99.90;;;;;;5028723;28;20053;-84
2021/11/28 01:37:22;;;;;;;98.53;26.10;;;3.80;99.90;;;;;;5014049;28;20049;-83
2021/11/28 01:39:49;;;;;;;85.05;26.35;;;3.80;99.90;;;;;;5013980;28;20144;-84
2021/11/28 01:42:38;;;;;;;83.78;25.55;;;3.80;99.90;;;;;;5031917;28;20092;-83
2021/11/28 01:45:07;;;;;;;90.00;24.85;;;3.80;99.90;;;;;;5031964;28;20136;-83
2021/11/28 01:47:34;;;;;;;79.70;23.77;;;3.80;99.90;;;;;;4998836;28;20085;-83
2021/11/28 01:50:01;;;;;;;84.65;25.40;;;3.80;99.90;;;;;;4975171;28;20089;-83
2021/11/28 01:52:28;;;;;;;89.57;24.75;;;3.80;99.90;;;;;;4992586;28;20483;-83
2021/11/28 01:54:55;;;;;;;85.70;23.63;;;3.90;99.90;;;;;;5011690;28;20084;-83
2021/11/28 01:57:22;;;;;;;88.82;24.20;;;3.80;99.90;;;;;;5012177;28;20084;-83
2021/11/28 01:59:49;;;;;;;90.15;24.75;;;3.90;99.90;;;;;;5011642;28;20053;-83
2021/11/28 02:02:16;;;;;;;91.20;25.05;;;3.90;99.90;;;;;;5017716;28;20479;-83
2021/11/28 02:04:45;;;;;;;81.30;24.02;;;3.90;99.90;;;;;;5028183;28;20187;-84
2021/11/28 02:07:13;;;;;;;81.55;23.77;;;3.90;99.90;;;;;;5031486;28;20084;-83
2021/11/28 02:09:40;;;;;;;82.35;24.20;;;3.90;99.90;;;;;;5021371;28;20129;-83
2021/11/28 02:12:07;;;;;;;89.78;24.85;;;3.90;99.90;;;;;;5012359;28;20124;-83
2021/11/28 02:14:34;;;;;;;80.85;24.48;;;3.80;99.90;;;;;;4994324;28;20786;-84
2021/11/28 02:17:01;;;;;;;86.85;24.05;;;3.80;99.90;;;;;;5012164;28;20104;-83
2021/11/28 02:19:28;;;;;;;86.32;24.75;;;3.80;99.90;;;;;;5011278;28;20666;-84
2021/11/28 02:21:55;;;;;;;82.15;23.85;;;3.80;99.90;;;;;;4994219;28;20093;-84
2021/11/28 02:24:22;;;;;;;78.53;22.85;;;3.80;99.90;;;;;;5017702;28;20120;-84
2021/11/28 02:26:52;;;;;;;93.47;25.65;;;3.70;99.90;;;;;;5014423;28;20120;-84
2021/11/28 02:29:19;;;;;;;90.10;23.10;;;3.70;99.90;;;;;;5004950;28;20133;-83
2021/11/28 02:31:46;;;;;;;82.03;24.13;;;3.70;99.90;;;;;;5005513;28;20096;-84
2021/11/28 02:34:13;;;;;;;80.88;23.85;;;3.70;99.90;;;;;;5005061;28;20068;-84
2021/11/28 02:36:40;;;;;;;93.40;25.67;;;3.80;99.90;;;;;;5023476;28;20157;-84
2021/11/28 02:39:07;;;;;;;94.65;25.05;;;3.80;99.90;;;;;;5011417;28;20460;-84
2021/11/28 02:41:34;;;;;;;90.00;23.98;;;3.80;99.90;;;;;;5005027;28;20085;-83
2021/11/28 02:44:12;;;;;;;92.97;23.73;;;3.80;99.90;;;;;;4992035;28;20090;-84
2021/11/28 02:46:39;;;;;;;94.43;24.77;;;3.90;99.90;;;;;;4976022;28;20466;-84
2021/11/28 02:49:06;;;;;;;82.88;22.67;;;3.90;99.90;;;;;;5011329;28;20082;-83
2021/11/28 02:51:34;;;;;;;108.43;25.27;;;4.00;99.90;;;;;;5011209;28;20073;-83
2021/11/28 02:54:02;;;;;;;95.63;24.50;;;4.00;99.90;;;;;;4993976;28;20081;-84
2021/11/28 02:56:32;;;;;;;85.10;22.35;;;4.00;99.90;;;;;;5010995;28;20456;-83
2021/11/28 02:58:59;;;;;;;99.70;23.35;;;4.00;99.90;;;;;;5011284;28;20100;-83
2021/11/28 03:01:26;;;;;;;96.18;25.10;;;4.00;99.90;;;;;;5004468;28;20085;-83
2021/11/28 03:03:53;;;;;;;99.10;24.15;;;4.10;99.90;;;;;;5017685;28;20050;-83
2021/11/28 03:06:21;;;;;;;80.40;23.80;;;4.10;99.90;;;;;;4993994;28;20085;-83
2021/11/28 03:08:48;;;;;;;94.57;24.80;;;4.00;99.90;;;;;;5011036;28;20168;-83
2021/11/28 03:11:15;;;;;;;93.60;23.95;;;3.90;99.90;;;;;;5011058;28;20460;-83
2021/11/28 03:13:45;;;;;;;78.32;23.10;;;3.90;99.90;;;;;;4993951;28;20096;-83
2021/11/28 03:16:19;;;;;;;88.13;23.35;;;3.90;99.90;;;;;;4994305;28;20104;-83
2021/11/28 03:18:48;;;;;;;89.47;23.17;;;4.00;99.90;;;;;;5008732;28;20054;-83
2021/11/28 03:21:22;;;;;;;81.72;22.05;;;4.00;99.90;;;;;;4991780;28;20085;-83
2021/11/28 03:23:50;;;;;;;78.55;22.83;;;4.00;99.90;;;;;;4975672;28;20082;-84
2021/11/28 03:26:22;;;;;;;94.57;21.88;;;4.10;99.90;;;;;;4993814;28;20493;-84
2021/11/28 03:28:54;;;;;;;76.18;21.10;;;4.10;99.90;;;;;;5011324;28;20081;-83
2021/11/28 03:31:23;;;;;;;83.63;22.75;;;4.10;99.90;;;;;;5011627;28;20120;-84
2021/11/28 03:33:50;;;;;;;79.68;22.83;;;4.10;99.90;;;;;;5020668;28;20503;-84
2021/11/28 03:36:21;;;;;;;83.05;22.85;;;4.10;99.90;;;;;;4994789;28;20054;-84
2021/11/28 03:38:48;;;;;;;83.03;20.83;;;4.10;99.90;;;;;;5014677;28;20487;-84
2021/11/28 03:41:19;;;;;;;70.05;20.23;;;4.10;99.90;;;;;;5014191;28;20088;-83
2021/11/28 03:43:48;;;;;;;80.55;20.10;;;4.10;99.90;;;;;;5014361;28;20797;-83
2021/11/28 03:46:15;;;;;;;82.03;20.77;;;4.10;99.90;;;;;;5014390;28;20108;-83
2021/11/28 03:48:41;;;;;;;80.65;21.70;;;4.10;99.90;;;;;;5014164;28;20041;-85
2021/11/28 03:51:09;;;;;;;77.22;20.30;;;4.20;99.90;;;;;;5005509;28;20077;-83
2021/11/28 03:53:36;;;;;;;78.32;20.70;;;4.10;99.90;;;;;;5014620;28;20052;-83
2021/11/28 03:56:07;;;;;;;73.00;20.83;;;4.20;99.90;;;;;;5005939;28;20081;-84
2021/11/28 03:58:36;;;;;;;83.53;21.42;;;4.20;99.90;;;;;;5014141;28;20057;-83
2021/11/28 04:01:05;;;;;;;75.78;20.25;;;4.20;99.90;;;;;;5017395;28;20089;-83
2021/11/28 04:03:33;;;;;;;73.97;21.52;;;4.20;99.90;;;;;;5022569;28;20451;-84
2021/11/28 04:06:00;;;;;;;83.60;22.10;;;4.20;99.90;;;;;;4994662;28;20529;-83
2021/11/28 04:08:28;;;;;;;81.85;20.25;;;4.20;99.90;;;;;;4994292;28;20504;-83
2021/11/28 04:10:55;;;;;;;74.25;20.20;;;4.20;99.90;;;;;;5014004;28;20077;-84
2021/11/28 04:13:28;;;;;;;83.75;20.30;;;4.20;99.90;;;;;;5013957;28;20413;-84
2021/11/28 04:15:55;;;;;;;77.70;20.52;;;4.20;99.90;;;;;;5014392;28;20057;-84
2021/11/28 04:18:22;;;;;;;81.13;20.90;;;4.20;99.90;;;;;;5014006;28;20045;-84
2021/11/28 04:20:49;;;;;;;67.88;20.45;;;4.30;99.90;;;;;;5013582;28;20733;-84
2021/11/28 04:23:17;;;;;;;84.60;21.33;;;4.30;99.90;;;;;;5013276;28;20088;-84
2021/11/28 04:25:44;;;;;;;73.30;20.40;;;4.30;99.90;;;;;;5012290;28;20077;-83
2021/11/28 04:28:11;;;;;;;73.70;19.88;;;4.30;99.90;;;;;;4996197;28;20050;-84
2021/11/28 04:30:38;;;;;;;77.18;20.02;;;4.30;99.90;;;;;;5013034;28;20077;-84
2021/11/28 04:33:05;;;;;;;68.13;20.00;;;4.30;99.90;;;;;;5026303;28;20077;-84
2021/11/28 04:35:32;;;;;;;69.70;20.40;;;4.30;99.90;;;;;;5012782;28;20052;-83
2021/11/28 04:38:03;;;;;;;77.72;19.42;;;4.30;99.90;;;;;;4992236;28;20129;-84
2021/11/28 04:40:30;;;;;;;83.63;20.33;;;4.30;99.90;;;;;;4988118;28;20128;-84
2021/11/28 04:42:57;;;;;;;74.22;20.50;;;4.30;99.90;;;;;;5004553;28;20134;-84
2021/11/28 04:45:23;;;;;;;67.28;20.90;;;4.30;99.90;;;;;;5012433;28;20746;-83
2021/11/28 04:47:50;;;;;;;63.67;17.60;;;4.30;99.90;;;;;;4994778;28;20057;-83
2021/11/28 04:50:17;;;;;;;64.63;19.00;;;4.40;99.90;;;;;;5007709;28;20132;-83
2021/11/28 04:52:44;;;;;;;65.15;19.38;;;4.30;99.90;;;;;;4982810;28;20051;-83
2021/11/28 04:55:13;;;;;;;76.80;20.23;;;4.30;99.90;;;;;;5011944;28;20049;-83
2021/11/28 04:57:40;;;;;;;71.63;20.73;;;4.30;99.90;;;;;;5005375;28;20089;-84
2021/11/28 05:00:13;;;;;;;74.57;19.50;;;4.30;99.90;;;;;;4994525;28;20108;-84
2021/11/28 05:02:40;;;;;;;76.00;21.27;;;4.30;99.90;;;;;;5020873;28;20073;-84
2021/11/28 05:05:16;;;;;;;73.80;21.30;;;4.40;99.90;;;;;;5014070;28;20657;-84
2021/11/28 05:07:43;;;;;;;70.30;22.13;;;4.30;99.90;;;;;;4983971;28;20054;-84
2021/11/28 05:10:10;;;;;;;68.10;21.40;;;4.30;99.90;;;;;;5012161;28;20129;-84
2021/11/28 05:12:38;;;;;;;74.38;22.38;;;4.30;99.90;;;;;;4994835;28;20128;-84
2021/11/28 05:15:05;;;;;;;68.45;20.88;;;4.30;99.90;;;;;;5010292;28;20173;-84
2021/11/28 05:17:32;;;;;;;79.82;24.00;;;4.30;99.90;;;;;;5001807;28;20057;-84
2021/11/28 05:19:59;;;;;;;69.90;20.98;;;4.30;99.90;;;;;;4981879;28;20065;-84
2021/11/28 05:22:26;;;;;;;71.40;22.02;;;4.30;99.90;;;;;;4997724;28;20440;-84
2021/11/28 05:24:53;;;;;;;78.78;21.58;;;4.30;99.90;;;;;;5001380;28;20077;-83
2021/11/28 05:27:22;;;;;;;79.72;24.00;;;4.30;99.90;;;;;;5003084;28;20419;-83
2021/11/28 05:29:49;;;;;;;77.95;21.25;;;4.30;99.90;;;;;;5007939;28;20124;-83
2021/11/28 05:32:16;;;;;;;90.30;23.25;;;4.30;99.90;;;;;;5002541;28;20045;-84
2021/11/28 05:34:51;;;;;;;84.03;23.38;;;4.40;99.90;;;;;;5019082;28;20467;-83
2021/11/28 05:37:18;;;;;;;76.30;23.10;;;4.30;99.90;;;;;;5002492;28;20531;-83
2021/11/28 05:39:45;;;;;;;81.97;23.50;;;4.30;99.90;;;;;;5007869;28;20088;-83
2021/11/28 05:42:12;;;;;;;80.07;22.60;;;4.30;99.90;;;;;;4993941;28;20058;-83
2021/11/28 05:44:39;;;;;;;86.40;23.63;;;4.30;99.90;;;;;;5002052;28;20564;-84
2021/11/28 05:47:05;;;;;;;82.95;21.92;;;4.20;99.90;;;;;;4983256;28;20459;-83
2021/11/28 05:49:32;;;;;;;78.55;22.70;;;4.30;99.90;;;;;;4987897;28;20054;-83
2021/11/28 05:51:59;;;;;;;74.75;21.88;;;4.30;99.90;;;;;;4996366;28;20081;-83
2021/11/28 05:54:26;;;;;;;79.35;23.67;;;4.30;99.90;;;;;;5010829;28;20114;-83
2021/11/28 05:56:53;;;;;;;73.20;22.00;;;4.30;99.90;;;;;;5005905;28;20076;-83
2021/11/28 05:59:20;;;;;;;77.32;22.42;;;4.20;99.90;;;;;;5007227;28;20054;-83
2021/11/28 06:01:47;;;;;;;83.97;22.88;;;4.30;99.90;;;;;;5010434;28;20057;-83
2021/11/28 06:04:14;;;;;;;77.80;21.65;;;4.30;99.90;;;;;;5021740;23;20047;-75
2021/11/28 06:06:41;;;;;;;78.85;22.83;;;4.30;99.90;;;;;;5000142;28;20152;-76
2021/11/28 06:09:08;;;;;;;77.20;21.70;;;4.30;99.90;;;;;;4998155;28;20164;-75
2021/11/28 06:11:34;;;;;;;67.05;21.25;;;4.30;99.90;;;;;;4988246;28;20120;-75
2021/11/28 06:14:01;;;;;;;80.38;21.88;;;4.30;99.90;;;;;;5003333;28;20137;-75
2021/11/28 06:16:37;;;;;;;79.20;22.55;;;4.30;99.90;;;;;;5000569;28;20073;-76
2021/11/28 06:19:08;;;;;;;84.25;20.80;;;4.30;99.90;;;;;;4986679;28;20065;-84
2021/11/28 06:21:35;;;;;;;66.32;21.67;;;4.30;99.90;;;;;;5010938;28;20123;-84
2021/11/28 06:24:02;;;;;;;72.90;22.23;;;4.20;99.90;;;;;;5011657;28;20525;-84
2021/11/28 06:26:38;;;;;;;58.05;18.55;;;4.20;99.90;;;;;;5012095;28;20482;-83
2021/11/28 06:29:07;;;;;;;39.83;12.88;;;4.30;99.90;;;;;;5005294;28;20081;-83
2021/11/28 06:31:34;;;;;;;32.80;10.88;;;4.20;99.90;;;;;;5015940;28;20129;-84
2021/11/28 06:34:01;;;;;;;33.25;10.95;;;4.20;99.90;;;;;;5010872;28;20491;-84
2021/11/28 06:36:27;;;;;;;33.47;13.65;;;4.20;99.90;;;;;;4989664;28;20081;-84
2021/11/28 06:38:55;;;;;;;21.70;8.40;;;4.10;99.90;;;;;;4985713;28;20862;-84
2021/11/28 06:41:25;;;;;;;22.95;8.25;;;4.10;99.90;;;;;;4994094;28;20073;-84
2021/11/28 06:44:01;;;;;;;23.63;8.25;;;4.10;99.90;;;;;;4993295;28;20552;-84
2021/11/28 06:46:29;;;;;;;;;;;4.00;99.90;;;;;;4987470;28;20161;-84
2021/11/28 06:48:57;;;;;;;18.92;8.20;;;4.00;99.90;;;;;;4986584;28;20348;-83
2021/11/28 06:51:24;;;;;;;18.85;7.07;;;4.00;99.90;;;;;;4992458;28;20085;-83
2021/11/28 06:53:51;;;;;;;20.10;7.72;;;3.90;99.90;;;;;;4997726;28;20149;-83
2021/11/28 06:56:19;;;;;;;18.55;7.03;;;4.00;99.90;;;;;;5013853;28;20149;-83
2021/11/28 06:58:46;;;;;;;15.07;6.20;;;3.90;99.90;;;;;;4986168;28;20168;-84
2021/11/28 07:01:13;;;;;;;12.63;4.88;;;3.90;99.90;;;;;;5012393;28;20049;-84
2021/11/28 07:03:40;;;;;;;11.80;4.32;;;3.90;99.90;;;;;;4992107;28;20050;-84
2021/11/28 07:09:47;;;;;;;10.95;4.80;;;3.70;99.90;;;;;;4994866;28;20061;-76
2021/11/28 07:12:15;;;;;;;8.05;3.67;;;3.70;99.90;;;;;;4987420;28;20077;-76
2021/11/28 07:14:41;;;;;;;8.88;4.22;;;3.70;99.90;;;;;;5001804;28;20133;-76
2021/11/28 07:17:08;;;;;;;9.60;4.45;;;3.70;99.90;;;;;;4998900;28;20657;-76
2021/11/28 07:19:35;;;;;;;8.05;4.15;;;3.70;99.90;;;;;;4986081;28;20068;-76
2021/11/28 07:22:02;;;;;;;9.75;4.75;;;3.60;99.90;;;;;;5008486;28;20145;-76
2021/11/28 07:24:29;;;;;;;8.90;4.15;;;3.70;99.90;;;;;;5012939;28;20045;-76
2021/11/28 07:26:56;;;;;;;9.20;4.28;;;3.70;99.90;;;;;;4993826;28;20058;-76
2021/11/28 07:29:23;;;;;;;11.23;4.97;;;3.70;99.90;;;;;;5004716;28;20133;-76
2021/11/28 07:31:50;;;;;;;9.10;4.47;;;3.70;99.90;;;;;;4989056;28;20746;-76
2021/11/28 07:34:17;;;;;;;9.38;4.63;;;3.70;99.90;;;;;;4989293;28;20081;-77
2021/11/28 07:36:44;;;;;;;12.20;5.20;;;3.70;99.90;;;;;;4986170;28;20148;-76
2021/11/28 07:39:11;;;;;;;11.52;5.15;;;3.80;99.90;;;;;;4997527;28;20120;-76
2021/11/28 07:41:39;;;;;;;11.68;5.50;;;3.70;99.90;;;;;;5008660;28;20132;-76
2021/11/28 07:44:06;;;;;;;12.65;5.80;;;3.70;99.90;;;;;;4990712;28;20054;-76
2021/11/28 07:46:33;;;;;;;16.17;6.22;;;3.70;99.90;;;;;;5004489;28;20132;-76
2021/11/28 07:49:00;;;;;;;17.35;6.85;;;3.70;99.90;;;;;;4996468;28;20086;-76
2021/11/28 07:51:27;;;;;;;15.18;7.07;;;3.70;99.90;;;;;;4988749;28;20523;-77
2021/11/28 07:53:56;;;;;;;14.25;7.00;;;3.70;99.90;;;;;;4973520;28;20134;-76
2021/11/28 07:56:23;;;;;;;15.25;6.35;;;3.70;99.90;;;;;;5004246;28;20131;-77
2021/11/28 07:58:50;;;;;;;16.55;8.18;;;3.70;99.90;;;;;;4985334;28;20074;-76
2021/11/28 08:01:17;;;;;;;15.98;7.00;;;3.70;99.90;;;;;;4989782;28;20117;-76
2021/11/28 08:03:44;;;;;;;15.88;7.75;;;3.70;99.90;;;;;;4989164;28;20116;-76
2021/11/28 08:06:12;;;;;;;14.02;7.07;;;3.80;99.90;;;;;;4987895;28;20064;-76
2021/11/28 08:08:39;;;;;;;16.80;6.95;;;3.70;99.90;;;;;;4985997;28;20494;-76
2021/11/28 08:11:06;;;;;;;16.70;7.68;;;3.80;99.90;;;;;;5007429;28;20133;-76
2021/11/28 08:13:33;;;;;;;18.00;7.43;;;3.80;99.90;;;;;;5006224;28;20546;-76
2021/11/28 08:16:00;;;;;;;16.95;7.78;;;3.90;99.90;;;;;;4989208;28;20050;-75
2021/11/28 08:18:27;;;;;;;15.43;7.25;;;3.90;99.90;;;;;;4996186;28;20137;-76
2021/11/28 08:20:54;;;;;;;15.77;6.90;;;3.80;99.90;;;;;;4989272;28;20088;-76
2021/11/28 08:23:21;;;;;;;13.52;7.05;;;3.90;99.90;;;;;;5009244;28;20578;-76
2021/11/28 08:25:48;;;;;;;16.00;7.53;;;3.80;99.90;;;;;;4970209;28;20180;-76
2021/11/28 08:28:14;;;;;;;17.55;7.80;;;3.80;99.90;;;;;;4977604;28;20129;-76
2021/11/28 08:30:41;;;;;;;17.80;8.15;;;3.90;99.90;;;;;;5001517;28;20080;-76
2021/11/28 08:33:09;;;;;;;18.85;9.02;;;3.90;99.90;;;;;;4997490;28;20077;-77
2021/11/28 08:35:36;;;;;;;15.85;8.13;;;4.00;99.90;;;;;;5004849;28;20137;-77
2021/11/28 08:38:04;;;;;;;16.48;8.30;;;4.00;99.90;;;;;;4998159;28;20600;-76
2021/11/28 08:40:32;;;;;;;18.42;8.55;;;4.10;99.90;;;;;;4987090;28;20081;-79
2021/11/28 08:42:59;;;;;;;15.88;8.10;;;4.20;99.90;;;;;;4990474;28;20136;-77
2021/11/28 08:45:26;;;;;;;18.75;8.70;;;4.10;99.90;;;;;;4984966;28;20153;-76
2021/11/28 08:47:53;;;;;;;18.17;8.73;;;4.20;99.90;;;;;;4979285;28;20134;-76
2021/11/28 08:50:20;;;;;;;17.35;8.23;;;4.20;99.90;;;;;;4987135;28;20141;-76
2021/11/28 08:52:47;;;;;;;16.00;7.53;;;4.30;99.90;;;;;;4986914;28;20136;-76
2021/11/28 08:55:16;;;;;;;16.30;7.95;;;4.30;99.90;;;;;;5020433;28;20053;-76
2021/11/28 08:57:43;;;;;;;15.27;7.60;;;4.40;99.90;;;;;;5004295;28;20566;-76
2021/11/28 09:00:11;;;;;;;16.35;8.45;;;4.40;99.90;;;;;;4987194;28;20139;-76
2021/11/28 09:02:38;;;;;;;13.80;7.07;;;4.30;99.90;;;;;;5003222;28;20133;-76
2021/11/28 09:05:07;;;;;;;18.75;7.93;;;4.30;99.90;;;;;;4986957;28;20061;-76
2021/11/28 09:07:34;;;;;;;14.18;6.90;;;4.30;99.90;;;;;;4996247;28;20216;-76
2021/11/28 09:10:02;;;;;;;17.00;7.80;;;4.40;99.90;;;;;;4982928;28;20182;-76
2021/11/28 09:12:29;;;;;;;18.70;8.63;;;4.40;99.90;;;;;;4986185;28;20128;-76
2021/11/28 09:14:56;;;;;;;26.98;13.57;;;4.50;99.90;;;;;;5002080;28;20711;-76
2021/11/28 09:17:32;;;;;;;15.88;7.63;;;4.60;99.90;;;;;;5006161;28;20057;-79
2021/11/28 09:25:11;;;;;;;;;;;4.70;99.90;;;;;;5003647;28;20145;-77
2021/11/28 09:27:43;;;;;;;15.48;7.43;;;4.70;99.90;;;;;;5005066;28;20011;-76
2021/11/28 09:30:10;;;;;;;15.63;8.27;;;4.70;99.90;;;;;;5013118;28;20045;-82
2021/11/28 09:32:39;;;;;;;15.75;8.18;;;4.90;99.90;;;;;;5004917;28;20129;-82
2021/11/28 09:35:07;;;;;;;17.08;8.93;;;5.00;99.90;;;;;;5017648;28;20049;-82
2021/11/28 09:37:46;;;;;;;15.38;8.32;;;5.00;99.90;;;;;;5010923;28;20133;-75
2021/11/28 09:40:13;;;;;;;15.35;8.50;;;5.10;99.90;;;;;;5009679;28;20050;-82
2021/11/28 09:42:59;;;;;;;20.52;10.68;;;5.10;99.90;;;;;;5011306;28;20089;-82
2021/11/28 09:45:27;;;;;;;22.35;10.95;;;5.10;99.90;;;;;;5014503;28;20054;-83
2021/11/28 09:47:57;;;;;;;17.85;9.45;;;5.20;99.90;;;;;;5008496;28;20818;-83
2021/11/28 09:50:24;;;;;;;15.73;8.70;;;5.30;99.90;;;;;;5021543;28;20081;-81
2021/11/28 09:52:52;;;;;;;14.00;8.20;;;5.60;99.90;;;;;;5032069;28;20139;-81
2021/11/28 09:55:20;;;;;;;15.60;8.80;;;5.80;99.90;;;;;;5007576;28;20063;-81
2021/11/28 09:57:53;;;;;;;16.80;9.52;;;6.00;99.90;;;;;;5006095;28;20085;-83
2021/11/28 10:00:22;;;;;;;16.30;9.30;;;6.10;99.90;;;;;;4991674;28;20136;-82
2021/11/28 10:02:49;;;;;;;15.40;8.85;;;6.30;99.90;;;;;;4994652;28;20823;-80
2021/11/28 10:05:18;;;;;;;17.00;9.15;;;6.60;99.90;;;;;;4991493;28;20041;-81
2021/11/28 10:07:47;;;;;;;14.35;8.43;;;6.80;99.90;;;;;;5007421;28;20076;-81
2021/11/28 10:10:17;;;;;;;14.63;8.98;;;6.90;99.90;;;;;;5003115;28;20046;-81
2021/11/28 10:12:49;;;;;;;13.23;8.30;;;6.90;99.90;;;;;;4992486;28;20064;-83
2021/11/28 10:15:21;;;;;;;12.93;7.78;;;6.80;99.90;;;;;;5006664;28;20081;-83
2021/11/28 10:17:49;;;;;;;12.13;7.63;;;6.60;99.90;;;;;;4986724;28;20089;-80
2021/11/28 10:20:22;;;;;;;14.73;8.00;;;6.30;99.90;;;;;;5002330;28;20054;-78
2021/11/28 10:22:50;;;;;;;13.30;7.82;;;6.20;99.90;;;;;;4998693;28;20050;-76
2021/11/28 10:25:28;;;;;;;14.25;7.68;;;6.00;99.90;;;;;;4998666;28;20045;-77
2021/11/28 10:28:01;;;;;;;14.77;7.82;;;5.80;99.90;;;;;;4972383;28;20046;-76
2021/11/28 10:30:34;;;;;;;10.60;6.65;;;5.60;99.90;;;;;;4977312;28;20125;-77
2021/11/28 10:33:11;;;;;;;12.15;7.32;;;5.40;99.90;;;;;;4994830;28;20163;-76
2021/11/28 10:36:02;;;;;;;11.88;6.97;;;5.30;99.90;;;;;;4996410;28;20141;-76
2021/11/28 10:38:44;;;;;;;12.13;7.50;;;5.10;99.90;;;;;;4970991;28;20069;-77
2021/11/28 10:41:22;;;;;;;14.07;8.10;;;5.10;99.90;;;;;;4999503;28;20566;-78
2021/11/28 10:43:50;;;;;;;15.40;8.85;;;4.90;99.90;;;;;;5002466;28;20607;-79
2021/11/28 10:46:31;;;;;;;12.15;6.95;;;4.90;99.90;;;;;;5003159;28;20542;-83
2021/11/28 10:49:19;;;;;;;14.43;9.18;;;4.90;99.90;;;;;;4984508;28;20096;-79
2021/11/28 10:51:51;;;;;;;14.52;8.13;;;4.80;99.90;;;;;;4982876;28;20092;-80
2021/11/28 10:54:34;;;;;;;11.63;6.47;;;4.80;99.90;;;;;;5010742;28;20054;-79
2021/11/28 10:57:08;;;;;;;12.73;7.38;;;4.70;99.90;;;;;;5011901;28;20534;-77
2021/11/28 10:59:42;;;;;;;14.00;8.15;;;4.70;99.90;;;;;;5004766;28;20053;-83
2021/11/28 11:02:27;;;;;;;13.23;7.22;;;4.80;99.90;;;;;;4998176;28;20081;-81
2021/11/28 11:04:56;;;;;;;14.60;8.25;;;4.70;99.90;;;;;;5008873;28;20050;-82
2021/11/28 11:07:50;;;;;;;14.60;7.60;;;4.70;99.90;;;;;;4987406;28;20054;-80
2021/11/28 11:10:24;;;;;;;16.23;8.52;;;4.60;99.90;;;;;;5004062;28;20062;-81
2021/11/28 11:12:54;;;;;;;16.10;8.65;;;4.70;99.90;;;;;;5011203;28;20487;-81
2021/11/28 11:15:45;;;;;;;16.40;8.95;;;4.80;99.90;;;;;;4998391;28;20089;-82
2021/11/28 11:18:15;;;;;;;16.95;9.57;;;4.70;99.90;;;;;;4983850;28;20093;-80
2021/11/28 11:20:54;;;;;;;17.35;9.85;;;4.80;99.90;;;;;;4991026;28;20526;-82
2021/11/28 11:23:37;;;;;;;62.13;13.55;;;4.80;99.90;;;;;;4977891;28;20054;-83
2021/11/28 11:26:33;;;;;;;58.67;12.13;;;4.80;99.90;;;;;;5013426;28;20042;-81
2021/11/28 11:29:12;;;;;;;19.20;9.85;;;4.90;99.90;;;;;;4966034;28;20077;-83
2021/11/28 11:31:42;;;;;;;17.15;9.65;;;4.90;99.90;;;;;;5006127;28;20112;-84
2021/11/28 11:34:26;;;;;;;23.48;11.52;;;4.80;99.90;;;;;;4991711;28;20078;-80
2021/11/28 11:37:15;;;;;;;17.20;9.37;;;4.80;99.90;;;;;;4989511;28;20133;-81
2021/11/28 11:39:45;;;;;;;15.70;8.45;;;4.80;99.90;;;;;;5010270;28;20347;-82
2021/11/28 11:42:16;;;;;;;21.20;10.27;;;4.80;99.90;;;;;;4988108;28;20133;-80
2021/11/28 11:44:47;;;;;;;19.98;9.98;;;4.90;99.90;;;;;;4985736;28;20074;-81
2021/11/28 11:47:19;;;;;;;19.38;9.73;;;4.80;99.90;;;;;;4977640;28;21038;-80
2021/11/28 11:49:47;;;;;;;17.08;8.80;;;4.80;99.90;;;;;;5015437;28;20044;-81
2021/11/28 11:52:17;;;;;;;20.08;9.98;;;4.90;99.90;;;;;;4996912;28;20056;-81
2021/11/28 11:54:50;;;;;;;17.42;10.07;;;4.80;99.90;;;;;;5024581;28;20053;-81
2021/11/28 11:57:22;;;;;;;16.95;9.27;;;4.90;99.90;;;;;;5008458;28;20462;-80
2021/11/28 12:00:18;;;;;;;17.88;9.55;;;4.90;99.90;;;;;;4990909;28;20085;-82
2021/11/28 12:02:50;;;;;;;22.13;9.85;;;4.90;99.90;;;;;;5005079;28;20093;-79
2021/11/28 12:05:23;;;;;;;19.20;10.20;;;4.90;99.90;;;;;;4976936;28;20104;-80
2021/11/28 12:07:56;;;;;;;17.73;9.20;;;4.90;99.90;;;;;;4991984;28;20084;-80
2021/11/28 12:10:32;;;;;;;17.40;8.35;;;4.90;99.90;;;;;;4995243;28;20054;-83
2021/11/28 12:13:02;;;;;;;17.92;8.90;;;4.90;99.90;;;;;;4981835;28;20073;-82
2021/11/28 12:15:35;;;;;;;19.17;9.38;;;4.90;99.90;;;;;;5006914;28;20140;-83
2021/11/28 12:18:04;;;;;;;17.83;9.35;;;5.00;99.90;;;;;;4993407;28;20073;-79
2021/11/28 12:20:55;;;;;;;22.52;9.80;;;4.90;99.90;;;;;;4997361;28;20084;-83
2021/11/28 12:24:03;;;;;;;25.65;10.50;;;4.90;99.90;;;;;;5000927;28;20049;-84
2021/11/28 12:26:31;;;;;;;33.38;13.18;;;4.90;99.90;;;;;;4981003;28;20058;-82
2021/11/28 12:29:20;;;;;;;43.38;16.55;;;4.80;99.90;;;;;;4982635;28;20161;-83
2021/11/28 12:31:55;;;;;;;43.40;16.15;;;4.70;99.90;;;;;;4978562;28;20089;-81
2021/11/28 12:34:45;;;;;;;50.40;17.20;;;4.70;99.90;;;;;;4998016;28;20727;-82
2021/11/28 12:37:23;;;;;;;60.58;18.00;;;4.60;99.90;;;;;;4987873;28;20038;-82
2021/11/28 12:39:51;;;;;;;47.70;18.42;;;4.60;99.90;;;;;;5005223;28;20039;-84
2021/11/28 12:42:23;;;;;;;49.47;18.08;;;4.60;99.90;;;;;;5013419;28;20077;-84
2021/11/28 12:44:50;;;;;;;49.90;18.27;;;4.60;99.90;;;;;;4993509;28;20053;-84
2021/11/28 12:47:37;;;;;;;55.15;19.67;;;4.70;99.90;;;;;;5009640;28;20117;-80
2021/11/28 12:50:16;;;;;;;59.50;18.75;;;4.70;99.90;;;;;;5006093;28;20128;-80
2021/11/28 12:52:50;;;;;;;53.22;17.65;;;4.70;99.90;;;;;;5017019;28;20045;-80
2021/11/28 12:55:26;;;;;;;54.15;19.50;;;4.80;99.90;;;;;;5013739;28;20070;-82
2021/11/28 12:57:58;;;;;;;51.05;18.13;;;4.80;99.90;;;;;;4975377;28;20069;-80
2021/11/28 13:00:49;;;;;;;52.58;18.65;;;5.00;99.90;;;;;;4993310;28;20050;-80
2021/11/28 13:03:16;;;;;;;54.80;20.27;;;5.00;99.90;;;;;;4985915;28;20137;-79
2021/11/28 13:05:57;;;;;;;57.72;20.20;;;5.00;99.90;;;;;;4998566;28;20054;-78
2021/11/28 13:08:31;;;;;;;60.17;21.00;;;5.00;99.90;;;;;;5000682;28;20073;-80
2021/11/28 13:11:26;;;;;;;57.28;19.52;;;5.00;99.90;;;;;;5005642;28;20046;-81